createdAt,value
2023-03-02T00:02:03.437Z,0.30
2023-03-02T00:04:49.970Z,0.30
2023-03-02T00:07:36.482Z,0.20
2023-03-02T00:10:23.012Z,0.20
2023-03-02T00:13:09.518Z,0.20
2023-03-02T00:15:56.075Z,0.20
2023-03-02T00:18:42.645Z,0.30
2023-03-02T00:21:29.143Z,0.20
2023-03-02T00:24:15.639Z,0.30
2023-03-02T00:27:02.165Z,0.30
2023-03-02T00:29:48.697Z,0.20
2023-03-02T00:32:35.222Z,0.20
2023-03-02T00:35:21.856Z,0.20
2023-03-02T00:38:08.402Z,0.20
2023-03-02T00:40:54.959Z,0.20
2023-03-02T00:43:41.502Z,0.30
2023-03-02T00:46:28.094Z,0.20
2023-03-02T00:49:15.678Z,0.20
2023-03-02T00:52:02.182Z,0.20
2023-03-02T00:54:48.735Z,0.30
2023-03-02T00:57:35.275Z,0.20
2023-03-02T01:00:21.772Z,0.20
2023-03-02T01:03:08.320Z,0.20
2023-03-02T01:05:56.898Z,0.20
2023-03-02T01:08:43.390Z,0.20
2023-03-02T01:11:34.938Z,0.20
2023-03-02T01:14:21.466Z,0.20
2023-03-02T01:17:07.970Z,0.20
2023-03-02T01:19:55.514Z,0.20
2023-03-02T01:22:42.115Z,0.20
2023-03-02T01:25:28.651Z,0.20
2023-03-02T01:28:15.217Z,0.20
2023-03-02T01:31:01.755Z,0.10
2023-03-02T01:33:48.283Z,0.10
2023-03-02T01:36:35.059Z,0.10
2023-03-02T01:39:21.709Z,0.10
2023-03-02T01:42:08.351Z,0.10
2023-03-02T01:44:54.891Z,0.10
2023-03-02T01:47:41.422Z,0.10
2023-03-02T01:50:27.966Z,0.10
2023-03-02T01:53:14.448Z,0.10
2023-03-02T01:56:00.959Z,0.10
2023-03-02T01:58:47.555Z,0.20
2023-03-02T02:01:34.035Z,0.20
2023-03-02T02:04:20.620Z,0.20
2023-03-02T02:07:07.152Z,0.30
2023-03-02T02:09:53.708Z,0.30
2023-03-02T02:12:40.196Z,0.30
2023-03-02T02:15:26.740Z,0.30
2023-03-02T02:18:13.264Z,0.40
2023-03-02T02:20:59.797Z,0.40
2023-03-02T02:23:46.333Z,0.40
2023-03-02T02:26:33.222Z,0.50
2023-03-02T02:29:19.913Z,0.50
2023-03-02T02:32:06.650Z,0.50
2023-03-02T02:34:53.295Z,0.50
2023-03-02T02:37:39.818Z,0.50
2023-03-02T02:40:26.364Z,0.60
2023-03-02T02:43:12.843Z,0.60
2023-03-02T02:45:59.403Z,0.60
2023-03-02T02:48:45.940Z,0.70
2023-03-02T02:51:32.478Z,0.70
2023-03-02T02:54:18.968Z,0.70
2023-03-02T02:57:05.524Z,0.70
2023-03-02T02:59:52.046Z,0.70
2023-03-02T03:02:38.592Z,0.70
2023-03-02T03:05:25.122Z,0.70
2023-03-02T03:08:11.718Z,0.70
2023-03-02T03:10:58.208Z,0.70
2023-03-02T03:13:44.705Z,0.70
2023-03-02T03:16:32.585Z,0.70
2023-03-02T03:19:19.270Z,0.70
2023-03-02T03:22:10.856Z,0.80
2023-03-02T03:24:57.339Z,0.70
2023-03-02T03:27:43.811Z,0.70
2023-03-02T03:30:30.406Z,0.60
2023-03-02T03:33:16.989Z,0.60
2023-03-02T03:36:03.609Z,0.60
2023-03-02T03:38:50.095Z,0.60
2023-03-02T03:41:36.588Z,0.60
2023-03-02T03:44:23.121Z,0.60
2023-03-02T03:47:09.704Z,0.60
2023-03-02T03:49:56.230Z,0.60
2023-03-02T03:52:42.796Z,0.60
2023-03-02T03:55:29.332Z,0.50
2023-03-02T03:58:15.929Z,0.50
2023-03-02T04:01:02.427Z,0.40
2023-03-02T04:03:49.049Z,0.40
2023-03-02T04:06:35.691Z,0.30
2023-03-02T04:09:22.302Z,0.30
2023-03-02T04:12:08.848Z,0.30
2023-03-02T04:14:55.390Z,0.20
2023-03-02T04:17:41.919Z,0.20
2023-03-02T04:20:28.450Z,0.20
2023-03-02T04:23:14.985Z,0.20
2023-03-02T04:26:01.512Z,0.10
2023-03-02T04:28:48.090Z,0.10
2023-03-02T04:31:34.608Z,0.10
2023-03-02T04:34:21.182Z,0.00
2023-03-02T04:37:07.720Z,0.00
2023-03-02T04:39:54.271Z,-0.10
2023-03-02T04:42:40.811Z,-0.10
2023-03-02T04:45:27.356Z,-0.10
2023-03-02T04:48:13.879Z,-0.10
2023-03-02T04:51:00.389Z,-0.10
2023-03-02T04:53:46.919Z,0.00
2023-03-02T04:56:33.780Z,-0.10
2023-03-02T04:59:20.483Z,-0.10
2023-03-02T05:02:07.068Z,-0.10
2023-03-02T05:04:53.649Z,-0.10
2023-03-02T05:07:40.223Z,0.00
2023-03-02T05:10:26.752Z,-0.20
2023-03-02T05:13:13.270Z,-0.20
2023-03-02T05:15:59.795Z,-0.20
2023-03-02T05:18:46.328Z,-0.10
2023-03-02T05:21:33.880Z,-0.20
2023-03-02T05:24:20.447Z,-0.10
2023-03-02T05:27:06.980Z,-0.10
2023-03-02T05:29:53.499Z,-0.10
2023-03-02T05:32:40.043Z,-0.10
2023-03-02T05:35:26.858Z,0.00
2023-03-02T05:38:13.412Z,0.00
2023-03-02T05:41:01.492Z,0.00
2023-03-02T05:43:47.976Z,0.10
2023-03-02T05:46:34.866Z,0.10
2023-03-02T05:49:21.551Z,0.20
2023-03-02T05:52:08.054Z,0.20
2023-03-02T05:54:54.535Z,0.30
2023-03-02T05:57:41.047Z,0.30
2023-03-02T06:00:27.562Z,0.30
2023-03-02T06:03:14.126Z,0.40
2023-03-02T06:06:00.627Z,0.40
2023-03-02T06:08:47.153Z,0.50
2023-03-02T06:11:33.632Z,0.50
2023-03-02T06:14:20.196Z,0.60
2023-03-02T06:17:06.735Z,0.60
2023-03-02T06:19:53.563Z,0.60
2023-03-02T06:22:40.086Z,0.60
2023-03-02T06:25:26.641Z,0.60
2023-03-02T06:28:13.135Z,0.60
2023-03-02T06:30:59.666Z,0.70
2023-03-02T06:33:46.199Z,0.60
2023-03-02T06:36:37.809Z,0.70
2023-03-02T06:39:24.365Z,0.60
2023-03-02T06:42:10.914Z,0.70
2023-03-02T06:44:57.441Z,0.60
2023-03-02T06:47:44.011Z,0.70
2023-03-02T06:50:30.491Z,0.70
2023-03-02T06:53:17.043Z,0.70
2023-03-02T06:56:03.592Z,0.70
2023-03-02T06:58:50.134Z,0.80
2023-03-02T07:01:36.842Z,0.80
2023-03-02T07:04:23.454Z,0.90
2023-03-02T07:07:09.976Z,1.10
2023-03-02T07:09:56.459Z,1.10
2023-03-02T07:12:43.014Z,1.20
2023-03-02T07:15:29.559Z,1.30
2023-03-02T07:18:16.101Z,1.40
2023-03-02T07:21:02.674Z,1.50
2023-03-02T07:23:50.212Z,1.60
2023-03-02T07:26:36.758Z,1.60
2023-03-02T07:29:23.273Z,1.70
2023-03-02T07:32:12.317Z,1.80
2023-03-02T07:34:59.206Z,1.80
2023-03-02T07:37:45.882Z,1.90
2023-03-02T07:40:32.417Z,1.90
2023-03-02T07:43:18.904Z,1.90
2023-03-02T07:46:05.728Z,2.00
2023-03-02T07:48:52.354Z,2.00
2023-03-02T07:51:38.835Z,2.00
2023-03-02T07:54:25.373Z,2.10
2023-03-02T07:57:11.857Z,2.10
2023-03-02T07:59:59.407Z,2.20
2023-03-02T08:02:45.996Z,2.30
2023-03-02T08:05:32.548Z,2.30
2023-03-02T08:08:19.027Z,2.40
2023-03-02T08:11:05.626Z,2.50
2023-03-02T08:13:53.279Z,2.70
2023-03-02T08:16:39.922Z,2.80
2023-03-02T08:19:26.451Z,3.00
2023-03-02T08:22:12.955Z,3.20
2023-03-02T08:24:59.480Z,3.30
2023-03-02T08:27:46.060Z,3.40
2023-03-02T08:30:32.578Z,3.50
2023-03-02T08:33:19.102Z,3.60
2023-03-02T08:36:05.664Z,3.80
2023-03-02T08:38:52.292Z,3.90
2023-03-02T08:41:38.885Z,4.00
2023-03-02T08:44:25.443Z,4.10
2023-03-02T08:47:11.964Z,4.20
2023-03-02T08:49:58.530Z,4.30
2023-03-02T08:52:45.041Z,4.40
2023-03-02T08:55:31.752Z,4.50
2023-03-02T08:58:18.337Z,4.60
2023-03-02T09:01:04.891Z,4.70
2023-03-02T09:03:52.467Z,4.80
2023-03-02T09:06:39.208Z,4.90
2023-03-02T09:09:25.744Z,5.00
2023-03-02T09:12:12.272Z,5.20
2023-03-02T09:14:58.804Z,5.30
2023-03-02T09:17:45.302Z,5.40
2023-03-02T09:20:31.817Z,5.50
2023-03-02T09:23:18.464Z,5.50
2023-03-02T09:26:04.955Z,5.60
2023-03-02T09:28:51.478Z,5.80
2023-03-02T09:31:38.594Z,5.90
2023-03-02T09:34:25.300Z,6.00
2023-03-02T09:37:11.784Z,6.00
2023-03-02T09:39:58.481Z,6.10
2023-03-02T09:42:45.006Z,6.20
2023-03-02T09:45:31.550Z,6.20
2023-03-02T09:48:18.107Z,6.30
2023-03-02T09:51:04.590Z,6.40
2023-03-02T09:53:51.112Z,6.40
2023-03-02T09:56:37.633Z,6.50
2023-03-02T09:59:24.445Z,6.50
2023-03-02T10:02:11.058Z,6.60
2023-03-02T10:04:57.714Z,6.70
2023-03-02T10:07:44.223Z,6.70
2023-03-02T10:10:30.843Z,6.80
2023-03-02T10:13:17.373Z,6.90
2023-03-02T10:16:03.985Z,7.00
2023-03-02T10:18:50.519Z,7.00
2023-03-02T10:21:37.068Z,7.10
2023-03-02T10:24:23.551Z,7.10
2023-03-02T10:27:10.141Z,7.30
2023-03-02T10:29:56.676Z,7.30
2023-03-02T10:32:43.187Z,7.40
2023-03-02T10:35:29.743Z,7.40
2023-03-02T10:38:17.492Z,7.40
2023-03-02T10:41:04.150Z,7.40
2023-03-02T10:43:50.720Z,7.60
2023-03-02T10:46:37.248Z,7.60
2023-03-02T10:49:23.859Z,7.70
2023-03-02T10:52:10.384Z,7.80
2023-03-02T10:54:57.054Z,7.90
2023-03-02T10:57:43.587Z,8.00
2023-03-02T11:00:30.139Z,8.00
2023-03-02T11:03:16.673Z,8.00
2023-03-02T11:06:03.164Z,8.10
2023-03-02T11:08:49.688Z,8.20
2023-03-02T11:11:36.482Z,8.20
2023-03-02T11:14:23.212Z,8.30
2023-03-02T11:17:09.746Z,8.40
2023-03-02T11:19:56.280Z,8.50
2023-03-02T11:22:42.863Z,8.50
2023-03-02T11:25:29.461Z,8.60
2023-03-02T11:28:15.985Z,8.60
2023-03-02T11:31:02.567Z,8.70
2023-03-02T11:33:49.216Z,8.80
2023-03-02T11:36:35.812Z,8.80
2023-03-02T11:39:22.349Z,9.00
2023-03-02T11:42:08.954Z,9.10
2023-03-02T11:44:55.821Z,9.20
2023-03-02T11:47:43.268Z,9.30
2023-03-02T11:50:30.858Z,9.40
2023-03-02T11:53:17.433Z,9.50
2023-03-02T11:56:04.036Z,9.50
2023-03-02T11:58:50.569Z,9.60
2023-03-02T12:01:37.201Z,9.60
2023-03-02T12:04:24.058Z,9.60
2023-03-02T12:07:10.605Z,9.80
2023-03-02T12:09:57.168Z,10.00
2023-03-02T12:12:43.646Z,10.10
2023-03-02T12:15:31.157Z,10.10
2023-03-02T12:18:17.671Z,10.10
2023-03-02T12:21:04.229Z,10.10
2023-03-02T12:23:50.806Z,10.20
2023-03-02T12:26:37.342Z,10.20
2023-03-02T12:29:23.905Z,10.30
2023-03-02T12:32:10.560Z,10.30
2023-03-02T12:34:57.126Z,10.40
2023-03-02T12:37:43.660Z,10.40
2023-03-02T12:40:30.163Z,10.50
2023-03-02T12:43:16.767Z,10.50
2023-03-02T12:46:03.457Z,10.40
2023-03-02T12:48:50.448Z,10.40
2023-03-02T12:51:37.230Z,10.50
2023-03-02T12:54:23.805Z,10.70
2023-03-02T12:57:10.486Z,10.80
2023-03-02T12:59:56.972Z,10.90
2023-03-02T13:02:43.507Z,10.80
2023-03-02T13:05:30.057Z,10.70
2023-03-02T13:08:16.590Z,10.80
2023-03-02T13:11:03.155Z,10.90
2023-03-02T13:13:49.842Z,10.90
2023-03-02T13:16:36.903Z,10.90
2023-03-02T13:19:23.730Z,10.80
2023-03-02T13:22:10.385Z,10.80
2023-03-02T13:24:56.952Z,10.80
2023-03-02T13:27:43.524Z,10.70
2023-03-02T13:30:30.129Z,10.70
2023-03-02T13:33:16.668Z,10.70
2023-03-02T13:36:03.247Z,10.60
2023-03-02T13:38:49.773Z,10.50
2023-03-02T13:41:36.333Z,10.60
2023-03-02T13:44:22.877Z,10.50
2023-03-02T13:47:09.444Z,10.50
2023-03-02T13:49:56.091Z,10.60
2023-03-02T13:52:42.649Z,10.70
2023-03-02T13:55:29.406Z,10.60
2023-03-02T13:58:15.948Z,10.60
2023-03-02T14:01:02.494Z,10.60
2023-03-02T14:03:49.082Z,10.50
2023-03-02T14:06:35.749Z,10.50
2023-03-02T14:09:22.374Z,10.50
2023-03-02T14:12:08.834Z,10.50
2023-03-02T14:14:55.382Z,10.50
2023-03-02T14:17:42.050Z,10.50
2023-03-02T14:20:28.575Z,10.50
2023-03-02T14:23:15.188Z,10.50
2023-03-02T14:26:01.751Z,10.50
2023-03-02T14:28:53.636Z,10.50
2023-03-02T14:31:46.507Z,10.40
2023-03-02T14:34:33.328Z,10.30
2023-03-02T14:37:20.658Z,10.20
2023-03-02T14:40:07.201Z,10.10
2023-03-02T14:42:58.689Z,10.10
2023-03-02T14:45:45.365Z,10.00
2023-03-02T14:48:31.911Z,9.90
2023-03-02T14:51:18.459Z,9.70
2023-03-02T14:54:04.971Z,9.70
2023-03-02T14:56:51.525Z,9.60
2023-03-02T14:59:38.100Z,9.50
2023-03-02T15:02:26.540Z,9.50
2023-03-02T15:05:13.626Z,9.40
2023-03-02T15:08:00.415Z,9.30
2023-03-02T15:10:46.941Z,9.30
2023-03-02T15:13:33.467Z,9.40
2023-03-02T15:16:20.102Z,9.30
2023-03-02T15:19:06.673Z,9.20
2023-03-02T15:21:53.171Z,9.20
2023-03-02T15:24:39.686Z,9.20
2023-03-02T15:27:26.183Z,9.10
2023-03-02T15:30:12.730Z,9.10
2023-03-02T15:32:59.237Z,9.00
2023-03-02T15:35:45.820Z,8.90
2023-03-02T15:38:32.385Z,8.90
2023-03-02T15:41:18.910Z,8.80
2023-03-02T15:44:05.439Z,8.80
2023-03-02T15:46:52.073Z,8.80
2023-03-02T15:49:38.570Z,8.80
2023-03-02T15:52:25.119Z,8.70
2023-03-02T15:55:11.651Z,8.70
2023-03-02T15:57:58.163Z,8.60
2023-03-02T16:00:44.733Z,8.60
2023-03-02T16:03:31.255Z,8.50
2023-03-02T16:06:17.825Z,8.40
2023-03-02T16:09:04.471Z,8.40
2023-03-02T16:11:51.041Z,8.30
2023-03-02T16:14:37.592Z,8.20
2023-03-02T16:17:24.114Z,8.20
2023-03-02T16:20:10.712Z,8.10
2023-03-02T16:22:57.233Z,8.00
2023-03-02T16:25:43.820Z,7.90
2023-03-02T16:28:30.309Z,7.80
2023-03-02T16:31:16.892Z,7.80
2023-03-02T16:34:03.472Z,7.60
2023-03-02T16:36:50.051Z,7.60
2023-03-02T16:39:36.551Z,7.50
2023-03-02T16:42:23.116Z,7.30
2023-03-02T16:45:09.682Z,7.30
2023-03-02T16:47:56.233Z,7.20
2023-03-02T16:50:42.774Z,7.10
2023-03-02T16:53:29.266Z,7.00
2023-03-02T16:56:15.833Z,6.90
2023-03-02T16:59:02.409Z,6.80
2023-03-02T17:01:49.019Z,6.80
2023-03-02T17:04:35.583Z,6.70
2023-03-02T17:07:22.140Z,6.60
2023-03-02T17:10:08.694Z,6.50
2023-03-02T17:12:55.215Z,6.50
2023-03-02T17:15:41.729Z,6.30
2023-03-02T17:18:28.236Z,6.20
2023-03-02T17:21:14.725Z,6.30
2023-03-02T17:24:01.283Z,6.20
2023-03-02T17:26:47.795Z,6.10
2023-03-02T17:29:34.345Z,6.10
2023-03-02T17:32:20.870Z,6.10
2023-03-02T17:35:07.410Z,5.90
2023-03-02T17:37:53.996Z,5.70
2023-03-02T17:40:40.505Z,5.70
2023-03-02T17:43:27.237Z,5.60
2023-03-02T17:46:14.767Z,5.50
2023-03-02T17:49:01.391Z,5.40
2023-03-02T17:51:47.902Z,5.40
2023-03-02T17:54:34.440Z,5.10
2023-03-02T17:57:20.970Z,5.00
2023-03-02T18:00:09.017Z,4.80
2023-03-02T18:02:55.802Z,4.70
2023-03-02T18:05:43.357Z,4.60
2023-03-02T18:08:29.864Z,4.50
2023-03-02T18:11:17.374Z,4.40
2023-03-02T18:14:03.888Z,4.30
2023-03-02T18:16:50.393Z,4.20
2023-03-02T18:19:36.954Z,4.20
2023-03-02T18:22:23.467Z,4.00
2023-03-02T18:25:10.013Z,4.00
2023-03-02T18:27:56.550Z,3.90
2023-03-02T18:30:43.117Z,3.80
2023-03-02T18:33:29.629Z,3.70
2023-03-02T18:36:16.181Z,3.70
2023-03-02T18:39:02.680Z,3.80
2023-03-02T18:41:49.188Z,3.80
2023-03-02T18:44:35.709Z,3.70
2023-03-02T18:47:22.258Z,3.70
2023-03-02T18:50:08.790Z,3.70
2023-03-02T18:52:55.317Z,3.50
2023-03-02T18:55:41.851Z,3.50
2023-03-02T18:58:30.279Z,3.40
2023-03-02T19:01:18.485Z,3.30
2023-03-02T19:04:05.052Z,3.30
2023-03-02T19:06:51.611Z,3.20
2023-03-02T19:09:38.105Z,3.10
2023-03-02T19:12:24.626Z,3.00
2023-03-02T19:15:11.184Z,3.00
2023-03-02T19:17:57.687Z,3.00
2023-03-02T19:20:45.905Z,3.00
2023-03-02T19:23:32.411Z,3.00
2023-03-02T19:26:18.924Z,2.90
2023-03-02T19:29:05.429Z,2.90
2023-03-02T19:31:53.099Z,2.70
2023-03-02T19:34:39.656Z,2.80
2023-03-02T19:37:26.204Z,2.70
2023-03-02T19:40:12.730Z,2.70
2023-03-02T19:42:59.241Z,2.70
2023-03-02T19:45:45.745Z,2.70
2023-03-02T19:48:32.437Z,2.70
2023-03-02T19:51:18.968Z,2.60
2023-03-02T19:54:05.508Z,2.50
2023-03-02T19:56:51.994Z,2.40
2023-03-02T19:59:38.647Z,2.40
2023-03-02T20:02:25.160Z,2.40
2023-03-02T20:05:11.725Z,2.30
2023-03-02T20:07:58.184Z,2.20
2023-03-02T20:10:44.669Z,2.10
2023-03-02T20:13:31.305Z,2.00
2023-03-02T20:16:17.888Z,1.90
2023-03-02T20:19:04.397Z,1.90
2023-03-02T20:21:50.927Z,1.70
2023-03-02T20:24:37.463Z,1.70
2023-03-02T20:27:23.965Z,1.70
2023-03-02T20:30:10.470Z,1.60
2023-03-02T20:32:56.955Z,1.50
2023-03-02T20:35:43.568Z,1.50
2023-03-02T20:38:30.061Z,1.40
2023-03-02T20:41:16.638Z,1.50
2023-03-02T20:44:03.161Z,1.40
2023-03-02T20:46:49.684Z,1.40
2023-03-02T20:49:36.171Z,1.40
2023-03-02T20:52:22.810Z,1.30
2023-03-02T20:55:09.369Z,1.30
2023-03-02T20:57:55.891Z,1.20
2023-03-02T21:00:43.480Z,1.20
2023-03-02T21:03:30.011Z,1.20
2023-03-02T21:06:16.569Z,1.20
2023-03-02T21:09:03.090Z,1.20
2023-03-02T21:11:49.624Z,1.20
2023-03-02T21:14:36.449Z,1.00
2023-03-02T21:17:23.001Z,1.00
2023-03-02T21:20:09.515Z,1.00
2023-03-02T21:22:56.129Z,1.00
2023-03-02T21:25:42.609Z,1.00
2023-03-02T21:28:29.154Z,0.80
2023-03-02T21:31:15.703Z,0.80
2023-03-02T21:34:02.245Z,0.80
2023-03-02T21:36:48.805Z,0.80
2023-03-02T21:39:35.288Z,0.80
2023-03-02T21:42:21.865Z,0.80
2023-03-02T21:45:08.387Z,0.80
2023-03-02T21:47:54.928Z,0.80
2023-03-02T21:50:41.453Z,0.70
2023-03-02T21:53:28.127Z,0.70
2023-03-02T21:56:14.668Z,0.70
2023-03-02T21:59:01.216Z,0.60
2023-03-02T22:01:47.812Z,0.60
2023-03-02T22:04:35.621Z,0.60
2023-03-02T22:07:22.251Z,0.50
2023-03-02T22:10:08.823Z,0.50
2023-03-02T22:12:55.379Z,0.40
2023-03-02T22:15:41.918Z,0.40
2023-03-02T22:18:28.480Z,0.40
2023-03-02T22:21:14.959Z,0.40
2023-03-02T22:24:01.483Z,0.30
2023-03-02T22:26:48.029Z,0.30
2023-03-02T22:29:34.516Z,0.30
2023-03-02T22:32:21.098Z,0.20
2023-03-02T22:35:07.666Z,0.20
2023-03-02T22:37:54.151Z,0.20
2023-03-02T22:40:40.660Z,0.20
2023-03-02T22:43:27.135Z,0.20
2023-03-02T22:46:13.670Z,0.20
2023-03-02T22:49:00.202Z,0.20
2023-03-02T22:51:46.742Z,0.20
2023-03-02T22:54:33.291Z,0.20
2023-03-02T22:57:19.834Z,0.30
2023-03-02T23:00:06.347Z,0.10
2023-03-02T23:02:52.842Z,0.10
2023-03-02T23:05:39.406Z,0.10
2023-03-02T23:08:25.954Z,0.10
2023-03-02T23:11:12.514Z,0.00
2023-03-02T23:13:59.045Z,0.00
2023-03-02T23:16:45.587Z,-0.10
2023-03-02T23:19:32.172Z,-0.10
2023-03-02T23:22:18.652Z,-0.10
2023-03-02T23:25:05.209Z,-0.10
2023-03-02T23:27:51.735Z,-0.30
2023-03-02T23:30:38.247Z,-0.30
2023-03-02T23:33:24.774Z,-0.20
2023-03-02T23:36:11.327Z,-0.20
2023-03-02T23:38:57.808Z,-0.30
2023-03-02T23:41:44.429Z,-0.40
2023-03-02T23:44:31.032Z,-0.40
2023-03-02T23:47:17.602Z,-0.40
2023-03-02T23:50:04.136Z,-0.30
2023-03-02T23:52:50.655Z,-0.30
2023-03-02T23:55:37.274Z,-0.30
2023-03-02T23:58:23.787Z,-0.30
